sensor_id;sensor_type;location;lat;lon;timestamp;P1;durP1;ratioP1;P2;durP2;ratioP2
39996;SDS011;25688;52.338;21.072;2023-05-29T00:00:47;13.77;;;6.55;;
39996;SDS011;25688;52.338;21.072;2023-05-29T00:03:13;10.45;;;5.35;;
39996;SDS011;25688;52.338;21.072;2023-05-29T00:05:39;14.48;;;4.95;;
39996;SDS011;25688;52.338;21.072;2023-05-29T00:08:05;10.90;;;5.35;;
39996;SDS011;25688;52.338;21.072;2023-05-29T00:10:31;7.75;;;4.10;;
39996;SDS011;25688;52.338;21.072;2023-05-29T00:12:57;9.27;;;4.68;;
39996;SDS011;25688;52.338;21.072;2023-05-29T00:15:26;9.05;;;4.72;;
39996;SDS011;25688;52.338;21.072;2023-05-29T00:18:01;27.30;;;5.63;;
39996;SDS011;25688;52.338;21.072;2023-05-29T00:20:27;9.05;;;3.88;;
39996;SDS011;25688;52.338;21.072;2023-05-29T00:22:53;56.55;;;6.28;;
39996;SDS011;25688;52.338;21.072;2023-05-29T00:25:19;13.30;;;4.68;;
39996;SDS011;25688;52.338;21.072;2023-05-29T00:27:44;12.50;;;5.82;;
39996;SDS011;25688;52.338;21.072;2023-05-29T00:30:10;16.17;;;6.07;;
39996;SDS011;25688;52.338;21.072;2023-05-29T00:32:36;13.10;;;5.75;;
39996;SDS011;25688;52.338;21.072;2023-05-29T00:35:02;19.30;;;6.57;;
39996;SDS011;25688;52.338;21.072;2023-05-29T00:37:28;17.90;;;6.75;;
39996;SDS011;25688;52.338;21.072;2023-05-29T00:39:54;16.38;;;6.60;;
39996;SDS011;25688;52.338;21.072;2023-05-29T00:42:20;10.05;;;5.95;;
39996;SDS011;25688;52.338;21.072;2023-05-29T00:44:46;13.10;;;6.10;;
39996;SDS011;25688;52.338;21.072;2023-05-29T00:47:12;12.18;;;5.63;;
39996;SDS011;25688;52.338;21.072;2023-05-29T00:49:38;11.52;;;5.20;;
39996;SDS011;25688;52.338;21.072;2023-05-29T00:52:04;10.48;;;4.72;;
39996;SDS011;25688;52.338;21.072;2023-05-29T00:54:33;14.18;;;5.15;;
39996;SDS011;25688;52.338;21.072;2023-05-29T00:56:59;15.07;;;6.30;;
39996;SDS011;25688;52.338;21.072;2023-05-29T00:59:26;16.17;;;6.45;;
39996;SDS011;25688;52.338;21.072;2023-05-29T01:01:55;15.30;;;7.70;;
39996;SDS011;25688;52.338;21.072;2023-05-29T01:04:23;11.63;;;5.65;;
39996;SDS011;25688;52.338;21.072;2023-05-29T01:06:52;11.57;;;5.32;;
39996;SDS011;25688;52.338;21.072;2023-05-29T01:09:18;15.85;;;6.07;;
39996;SDS011;25688;52.338;21.072;2023-05-29T01:14:48;17.08;;;7.90;;
39996;SDS011;25688;52.338;21.072;2023-05-29T01:17:36;14.25;;;6.38;;
39996;SDS011;25688;52.338;21.072;2023-05-29T01:20:24;14.40;;;7.93;;
39996;SDS011;25688;52.338;21.072;2023-05-29T01:28:27;14.15;;;7.35;;
39996;SDS011;25688;52.338;21.072;2023-05-29T01:31:00;18.88;;;7.30;;
39996;SDS011;25688;52.338;21.072;2023-05-29T01:33:27;15.13;;;7.68;;
39996;SDS011;25688;52.338;21.072;2023-05-29T01:35:53;19.70;;;7.63;;
39996;SDS011;25688;52.338;21.072;2023-05-29T01:38:19;13.35;;;7.30;;
39996;SDS011;25688;52.338;21.072;2023-05-29T01:40:45;16.92;;;7.72;;
39996;SDS011;25688;52.338;21.072;2023-05-29T01:43:12;16.42;;;7.28;;
39996;SDS011;25688;52.338;21.072;2023-05-29T01:45:38;15.90;;;7.47;;
39996;SDS011;25688;52.338;21.072;2023-05-29T01:48:05;11.00;;;5.80;;
39996;SDS011;25688;52.338;21.072;2023-05-29T01:50:31;12.82;;;5.25;;
39996;SDS011;25688;52.338;21.072;2023-05-29T01:53:00;9.27;;;4.95;;
39996;SDS011;25688;52.338;21.072;2023-05-29T01:55:26;11.20;;;6.35;;
39996;SDS011;25688;52.338;21.072;2023-05-29T01:57:52;38.15;;;6.30;;
39996;SDS011;25688;52.338;21.072;2023-05-29T02:00:19;21.65;;;4.28;;
39996;SDS011;25688;52.338;21.072;2023-05-29T02:02:47;109.30;;;12.63;;
39996;SDS011;25688;52.338;21.072;2023-05-29T02:05:19;6.82;;;3.72;;
39996;SDS011;25688;52.338;21.072;2023-05-29T02:07:49;12.80;;;4.93;;
39996;SDS011;25688;52.338;21.072;2023-05-29T02:10:15;28.60;;;7.75;;
39996;SDS011;25688;52.338;21.072;2023-05-29T02:12:41;20.70;;;8.00;;
39996;SDS011;25688;52.338;21.072;2023-05-29T02:15:07;16.92;;;7.80;;
39996;SDS011;25688;52.338;21.072;2023-05-29T02:17:33;13.57;;;7.00;;
39996;SDS011;25688;52.338;21.072;2023-05-29T02:19:59;12.70;;;7.30;;
39996;SDS011;25688;52.338;21.072;2023-05-29T02:22:25;16.92;;;7.50;;
39996;SDS011;25688;52.338;21.072;2023-05-29T02:24:53;26.02;;;6.13;;
39996;SDS011;25688;52.338;21.072;2023-05-29T02:27:19;9.40;;;4.75;;
39996;SDS011;25688;52.338;21.072;2023-05-29T02:29:45;14.82;;;5.03;;
39996;SDS011;25688;52.338;21.072;2023-05-29T02:32:11;8.63;;;4.50;;
39996;SDS011;25688;52.338;21.072;2023-05-29T02:34:37;106.18;;;10.32;;
39996;SDS011;25688;52.338;21.072;2023-05-29T02:37:03;12.80;;;6.22;;
39996;SDS011;25688;52.338;21.072;2023-05-29T02:39:29;31.98;;;9.50;;
39996;SDS011;25688;52.338;21.072;2023-05-29T02:41:54;124.20;;;13.15;;
39996;SDS011;25688;52.338;21.072;2023-05-29T02:44:23;24.90;;;8.57;;
39996;SDS011;25688;52.338;21.072;2023-05-29T02:46:58;22.83;;;7.45;;
39996;SDS011;25688;52.338;21.072;2023-05-29T02:49:24;16.50;;;6.82;;
39996;SDS011;25688;52.338;21.072;2023-05-29T02:51:50;13.02;;;6.95;;
39996;SDS011;25688;52.338;21.072;2023-05-29T02:54:16;13.52;;;7.30;;
39996;SDS011;25688;52.338;21.072;2023-05-29T02:56:42;13.95;;;7.03;;
39996;SDS011;25688;52.338;21.072;2023-05-29T02:59:08;96.70;;;14.65;;
39996;SDS011;25688;52.338;21.072;2023-05-29T03:01:34;14.75;;;7.22;;
39996;SDS011;25688;52.338;21.072;2023-05-29T03:04:00;18.55;;;8.15;;
39996;SDS011;25688;52.338;21.072;2023-05-29T03:06:25;13.95;;;7.25;;
39996;SDS011;25688;52.338;21.072;2023-05-29T03:08:51;18.15;;;7.57;;
39996;SDS011;25688;52.338;21.072;2023-05-29T03:11:17;18.23;;;7.68;;
39996;SDS011;25688;52.338;21.072;2023-05-29T03:13:43;16.50;;;8.80;;
39996;SDS011;25688;52.338;21.072;2023-05-29T03:16:11;18.75;;;8.07;;
39996;SDS011;25688;52.338;21.072;2023-05-29T03:18:37;19.40;;;8.38;;
39996;SDS011;25688;52.338;21.072;2023-05-29T03:21:02;17.08;;;8.60;;
39996;SDS011;25688;52.338;21.072;2023-05-29T03:23:28;16.98;;;8.02;;
39996;SDS011;25688;52.338;21.072;2023-05-29T03:25:54;19.00;;;7.68;;
39996;SDS011;25688;52.338;21.072;2023-05-29T03:28:20;21.65;;;7.68;;
39996;SDS011;25688;52.338;21.072;2023-05-29T03:30:45;15.80;;;7.57;;
39996;SDS011;25688;52.338;21.072;2023-05-29T03:33:11;15.15;;;8.05;;
39996;SDS011;25688;52.338;21.072;2023-05-29T03:35:37;15.73;;;7.55;;
39996;SDS011;25688;52.338;21.072;2023-05-29T03:38:02;17.17;;;7.93;;
39996;SDS011;25688;52.338;21.072;2023-05-29T03:40:28;16.52;;;7.63;;
39996;SDS011;25688;52.338;21.072;2023-05-29T03:42:54;16.20;;;8.00;;
39996;SDS011;25688;52.338;21.072;2023-05-29T03:45:19;14.98;;;7.78;;
39996;SDS011;25688;52.338;21.072;2023-05-29T03:47:45;19.67;;;8.15;;
39996;SDS011;25688;52.338;21.072;2023-05-29T03:50:11;17.13;;;7.57;;
39996;SDS011;25688;52.338;21.072;2023-05-29T03:52:40;14.88;;;7.55;;
39996;SDS011;25688;52.338;21.072;2023-05-29T03:55:08;17.02;;;7.63;;
39996;SDS011;25688;52.338;21.072;2023-05-29T03:57:38;13.18;;;7.50;;
39996;SDS011;25688;52.338;21.072;2023-05-29T04:00:06;16.17;;;9.60;;
39996;SDS011;25688;52.338;21.072;2023-05-29T04:02:35;21.15;;;8.80;;
39996;SDS011;25688;52.338;21.072;2023-05-29T04:05:02;17.65;;;8.05;;
39996;SDS011;25688;52.338;21.072;2023-05-29T04:07:28;16.17;;;7.50;;
39996;SDS011;25688;52.338;21.072;2023-05-29T04:09:54;18.20;;;8.60;;
39996;SDS011;25688;52.338;21.072;2023-05-29T04:12:20;15.95;;;7.82;;
39996;SDS011;25688;52.338;21.072;2023-05-29T04:14:45;19.30;;;7.78;;
39996;SDS011;25688;52.338;21.072;2023-05-29T04:17:11;14.90;;;8.50;;
39996;SDS011;25688;52.338;21.072;2023-05-29T04:19:47;15.88;;;7.70;;
39996;SDS011;25688;52.338;21.072;2023-05-29T04:22:12;14.80;;;7.78;;
39996;SDS011;25688;52.338;21.072;2023-05-29T04:24:38;17.65;;;8.32;;
39996;SDS011;25688;52.338;21.072;2023-05-29T04:27:04;18.52;;;9.07;;
39996;SDS011;25688;52.338;21.072;2023-05-29T04:29:30;20.23;;;9.02;;
39996;SDS011;25688;52.338;21.072;2023-05-29T04:31:57;15.15;;;7.18;;
39996;SDS011;25688;52.338;21.072;2023-05-29T04:34:23;14.88;;;7.85;;
39996;SDS011;25688;52.338;21.072;2023-05-29T04:36:49;15.60;;;7.93;;
39996;SDS011;25688;52.338;21.072;2023-05-29T04:39:14;29.30;;;9.68;;
39996;SDS011;25688;52.338;21.072;2023-05-29T04:41:40;18.02;;;8.23;;
39996;SDS011;25688;52.338;21.072;2023-05-29T04:44:06;16.02;;;7.93;;
39996;SDS011;25688;52.338;21.072;2023-05-29T04:46:33;19.02;;;7.57;;
39996;SDS011;25688;52.338;21.072;2023-05-29T04:49:00;16.42;;;8.02;;
39996;SDS011;25688;52.338;21.072;2023-05-29T04:51:28;18.88;;;8.20;;
39996;SDS011;25688;52.338;21.072;2023-05-29T04:53:55;23.83;;;9.48;;
39996;SDS011;25688;52.338;21.072;2023-05-29T04:56:21;21.05;;;8.95;;
39996;SDS011;25688;52.338;21.072;2023-05-29T04:58:47;17.67;;;9.00;;
39996;SDS011;25688;52.338;21.072;2023-05-29T05:01:13;22.80;;;10.13;;
39996;SDS011;25688;52.338;21.072;2023-05-29T05:03:43;24.52;;;10.73;;
39996;SDS011;25688;52.338;21.072;2023-05-29T05:06:09;22.60;;;10.00;;
39996;SDS011;25688;52.338;21.072;2023-05-29T05:08:35;23.58;;;10.00;;
39996;SDS011;25688;52.338;21.072;2023-05-29T05:11:01;22.40;;;10.35;;
39996;SDS011;25688;52.338;21.072;2023-05-29T05:13:27;17.60;;;9.13;;
39996;SDS011;25688;52.338;21.072;2023-05-29T05:15:53;20.95;;;10.45;;
39996;SDS011;25688;52.338;21.072;2023-05-29T05:18:19;18.25;;;10.43;;
39996;SDS011;25688;52.338;21.072;2023-05-29T05:20:45;17.83;;;10.30;;
39996;SDS011;25688;52.338;21.072;2023-05-29T05:23:11;21.40;;;9.57;;
39996;SDS011;25688;52.338;21.072;2023-05-29T05:25:37;20.58;;;9.45;;
39996;SDS011;25688;52.338;21.072;2023-05-29T05:28:03;21.35;;;8.65;;
39996;SDS011;25688;52.338;21.072;2023-05-29T05:30:30;22.95;;;8.10;;
39996;SDS011;25688;52.338;21.072;2023-05-29T05:32:56;21.50;;;7.90;;
39996;SDS011;25688;52.338;21.072;2023-05-29T05:35:23;20.45;;;8.05;;
39996;SDS011;25688;52.338;21.072;2023-05-29T05:37:49;18.92;;;7.65;;
39996;SDS011;25688;52.338;21.072;2023-05-29T05:40:15;17.83;;;7.00;;
39996;SDS011;25688;52.338;21.072;2023-05-29T05:42:41;15.77;;;6.10;;
39996;SDS011;25688;52.338;21.072;2023-05-29T05:45:06;13.15;;;6.20;;
39996;SDS011;25688;52.338;21.072;2023-05-29T05:47:33;13.15;;;5.40;;
39996;SDS011;25688;52.338;21.072;2023-05-29T05:49:59;14.27;;;6.22;;
39996;SDS011;25688;52.338;21.072;2023-05-29T05:52:24;15.25;;;5.60;;
39996;SDS011;25688;52.338;21.072;2023-05-29T05:54:56;13.23;;;4.53;;
39996;SDS011;25688;52.338;21.072;2023-05-29T05:57:22;11.45;;;4.90;;
39996;SDS011;25688;52.338;21.072;2023-05-29T05:59:48;13.82;;;4.43;;
39996;SDS011;25688;52.338;21.072;2023-05-29T06:02:13;10.95;;;4.70;;
39996;SDS011;25688;52.338;21.072;2023-05-29T06:04:40;10.40;;;3.95;;
39996;SDS011;25688;52.338;21.072;2023-05-29T06:07:05;13.95;;;4.70;;
39996;SDS011;25688;52.338;21.072;2023-05-29T06:09:31;10.43;;;3.55;;
39996;SDS011;25688;52.338;21.072;2023-05-29T06:11:57;10.05;;;3.78;;
39996;SDS011;25688;52.338;21.072;2023-05-29T06:14:24;9.05;;;3.17;;
39996;SDS011;25688;52.338;21.072;2023-05-29T06:16:50;6.60;;;3.55;;
39996;SDS011;25688;52.338;21.072;2023-05-29T06:19:16;7.32;;;3.28;;
39996;SDS011;25688;52.338;21.072;2023-05-29T06:21:42;8.05;;;3.08;;
39996;SDS011;25688;52.338;21.072;2023-05-29T06:24:08;7.63;;;2.95;;
39996;SDS011;25688;52.338;21.072;2023-05-29T06:26:33;11.43;;;3.17;;
39996;SDS011;25688;52.338;21.072;2023-05-29T06:29:01;10.68;;;3.83;;
39996;SDS011;25688;52.338;21.072;2023-05-29T06:31:27;9.00;;;2.60;;
39996;SDS011;25688;52.338;21.072;2023-05-29T06:33:53;10.15;;;2.75;;
39996;SDS011;25688;52.338;21.072;2023-05-29T06:36:19;7.05;;;2.97;;
39996;SDS011;25688;52.338;21.072;2023-05-29T06:38:46;9.82;;;2.67;;
39996;SDS011;25688;52.338;21.072;2023-05-29T06:41:13;8.25;;;2.38;;
39996;SDS011;25688;52.338;21.072;2023-05-29T06:43:39;6.32;;;2.47;;
39996;SDS011;25688;52.338;21.072;2023-05-29T06:46:05;6.88;;;2.53;;
39996;SDS011;25688;52.338;21.072;2023-05-29T06:48:34;8.52;;;2.70;;
39996;SDS011;25688;52.338;21.072;2023-05-29T06:51:00;13.75;;;2.55;;
39996;SDS011;25688;52.338;21.072;2023-05-29T06:53:26;9.35;;;2.20;;
39996;SDS011;25688;52.338;21.072;2023-05-29T06:55:54;5.78;;;2.30;;
39996;SDS011;25688;52.338;21.072;2023-05-29T06:58:20;5.18;;;1.55;;
39996;SDS011;25688;52.338;21.072;2023-05-29T07:00:46;6.07;;;1.75;;
39996;SDS011;25688;52.338;21.072;2023-05-29T07:03:11;6.13;;;1.80;;
39996;SDS011;25688;52.338;21.072;2023-05-29T07:05:37;7.25;;;2.42;;
39996;SDS011;25688;52.338;21.072;2023-05-29T07:08:03;10.45;;;1.88;;
39996;SDS011;25688;52.338;21.072;2023-05-29T07:10:29;7.03;;;1.60;;
39996;SDS011;25688;52.338;21.072;2023-05-29T07:12:55;9.77;;;1.85;;
39996;SDS011;25688;52.338;21.072;2023-05-29T07:15:20;5.63;;;2.20;;
39996;SDS011;25688;52.338;21.072;2023-05-29T07:17:46;9.02;;;2.17;;
39996;SDS011;25688;52.338;21.072;2023-05-29T07:20:12;7.20;;;1.88;;
39996;SDS011;25688;52.338;21.072;2023-05-29T07:22:39;4.97;;;2.28;;
39996;SDS011;25688;52.338;21.072;2023-05-29T07:25:05;8.27;;;2.30;;
39996;SDS011;25688;52.338;21.072;2023-05-29T07:27:33;5.20;;;2.05;;
39996;SDS011;25688;52.338;21.072;2023-05-29T07:30:00;5.65;;;2.08;;
39996;SDS011;25688;52.338;21.072;2023-05-29T07:32:26;7.93;;;2.20;;
39996;SDS011;25688;52.338;21.072;2023-05-29T07:34:51;6.70;;;2.15;;
39996;SDS011;25688;52.338;21.072;2023-05-29T07:37:17;9.98;;;2.15;;
39996;SDS011;25688;52.338;21.072;2023-05-29T07:39:44;11.95;;;2.22;;
39996;SDS011;25688;52.338;21.072;2023-05-29T07:42:10;4.90;;;1.55;;
39996;SDS011;25688;52.338;21.072;2023-05-29T07:44:35;5.18;;;1.77;;
39996;SDS011;25688;52.338;21.072;2023-05-29T07:47:01;9.82;;;1.77;;
39996;SDS011;25688;52.338;21.072;2023-05-29T07:49:27;6.53;;;1.73;;
39996;SDS011;25688;52.338;21.072;2023-05-29T07:51:52;5.63;;;1.50;;
39996;SDS011;25688;52.338;21.072;2023-05-29T08:00:03;4.88;;;2.13;;
39996;SDS011;25688;52.338;21.072;2023-05-29T08:02:34;9.02;;;1.77;;
39996;SDS011;25688;52.338;21.072;2023-05-29T08:05:01;6.28;;;1.90;;
39996;SDS011;25688;52.338;21.072;2023-05-29T08:07:27;9.13;;;1.70;;
39996;SDS011;25688;52.338;21.072;2023-05-29T08:09:53;6.78;;;1.77;;
39996;SDS011;25688;52.338;21.072;2023-05-29T08:12:19;6.53;;;1.98;;
39996;SDS011;25688;52.338;21.072;2023-05-29T08:14:45;7.38;;;1.65;;
39996;SDS011;25688;52.338;21.072;2023-05-29T08:17:11;4.03;;;1.73;;
39996;SDS011;25688;52.338;21.072;2023-05-29T08:19:36;8.70;;;1.80;;
39996;SDS011;25688;52.338;21.072;2023-05-29T08:22:02;3.88;;;1.95;;
39996;SDS011;25688;52.338;21.072;2023-05-29T08:24:28;6.88;;;1.98;;
39996;SDS011;25688;52.338;21.072;2023-05-29T08:26:54;7.43;;;1.85;;
39996;SDS011;25688;52.338;21.072;2023-05-29T08:29:19;7.25;;;2.45;;
39996;SDS011;25688;52.338;21.072;2023-05-29T08:31:45;9.02;;;1.67;;
39996;SDS011;25688;52.338;21.072;2023-05-29T08:34:11;7.78;;;1.90;;
39996;SDS011;25688;52.338;21.072;2023-05-29T08:36:37;8.35;;;1.50;;
39996;SDS011;25688;52.338;21.072;2023-05-29T08:39:06;5.93;;;1.88;;
39996;SDS011;25688;52.338;21.072;2023-05-29T08:44:00;7.43;;;1.80;;
39996;SDS011;25688;52.338;21.072;2023-05-29T08:46:30;5.32;;;1.90;;
39996;SDS011;25688;52.338;21.072;2023-05-29T08:48:57;7.95;;;1.70;;
39996;SDS011;25688;52.338;21.072;2023-05-29T08:51:25;6.88;;;1.80;;
39996;SDS011;25688;52.338;21.072;2023-05-29T08:53:56;4.78;;;1.80;;
39996;SDS011;25688;52.338;21.072;2023-05-29T08:56:22;6.72;;;1.95;;
39996;SDS011;25688;52.338;21.072;2023-05-29T08:58:48;9.05;;;2.33;;
39996;SDS011;25688;52.338;21.072;2023-05-29T09:01:15;5.93;;;1.50;;
39996;SDS011;25688;52.338;21.072;2023-05-29T09:03:41;8.57;;;1.85;;
39996;SDS011;25688;52.338;21.072;2023-05-29T09:06:07;9.57;;;1.83;;
39996;SDS011;25688;52.338;21.072;2023-05-29T09:08:33;6.57;;;1.70;;
39996;SDS011;25688;52.338;21.072;2023-05-29T09:11:00;9.63;;;2.30;;
39996;SDS011;25688;52.338;21.072;2023-05-29T09:13:26;6.22;;;2.45;;
39996;SDS011;25688;52.338;21.072;2023-05-29T09:15:59;6.88;;;2.22;;
39996;SDS011;25688;52.338;21.072;2023-05-29T09:18:28;7.90;;;2.08;;
39996;SDS011;25688;52.338;21.072;2023-05-29T09:20:57;8.95;;;1.88;;
39996;SDS011;25688;52.338;21.072;2023-05-29T09:23:23;7.43;;;1.83;;
39996;SDS011;25688;52.338;21.072;2023-05-29T09:25:51;5.32;;;1.90;;
39996;SDS011;25688;52.338;21.072;2023-05-29T09:28:19;6.07;;;1.92;;
39996;SDS011;25688;52.338;21.072;2023-05-29T09:30:46;10.40;;;1.92;;
39996;SDS011;25688;52.338;21.072;2023-05-29T09:33:13;8.45;;;2.00;;
39996;SDS011;25688;52.338;21.072;2023-05-29T09:40:50;6.15;;;2.10;;
39996;SDS011;25688;52.338;21.072;2023-05-29T09:43:18;6.18;;;1.70;;
39996;SDS011;25688;52.338;21.072;2023-05-29T09:45:46;8.20;;;2.55;;
39996;SDS011;25688;52.338;21.072;2023-05-29T09:48:14;9.38;;;2.28;;
39996;SDS011;25688;52.338;21.072;2023-05-29T09:53:19;5.28;;;1.75;;
39996;SDS011;25688;52.338;21.072;2023-05-29T09:55:49;6.82;;;2.03;;
39996;SDS011;25688;52.338;21.072;2023-05-29T09:58:19;6.93;;;2.30;;
39996;SDS011;25688;52.338;21.072;2023-05-29T10:00:45;5.65;;;1.70;;
39996;SDS011;25688;52.338;21.072;2023-05-29T10:03:12;6.30;;;1.67;;
39996;SDS011;25688;52.338;21.072;2023-05-29T10:05:39;4.22;;;1.70;;
39996;SDS011;25688;52.338;21.072;2023-05-29T10:08:06;6.90;;;2.08;;
39996;SDS011;25688;52.338;21.072;2023-05-29T10:10:36;7.88;;;2.47;;
39996;SDS011;25688;52.338;21.072;2023-05-29T10:13:05;5.63;;;2.05;;
39996;SDS011;25688;52.338;21.072;2023-05-29T10:15:35;8.90;;;2.15;;
39996;SDS011;25688;52.338;21.072;2023-05-29T10:18:03;7.15;;;2.20;;
39996;SDS011;25688;52.338;21.072;2023-05-29T10:20:30;5.70;;;2.53;;
39996;SDS011;25688;52.338;21.072;2023-05-29T10:22:59;7.00;;;2.30;;
39996;SDS011;25688;52.338;21.072;2023-05-29T10:25:28;5.78;;;1.98;;
39996;SDS011;25688;52.338;21.072;2023-05-29T10:27:56;7.25;;;2.25;;
39996;SDS011;25688;52.338;21.072;2023-05-29T10:38:46;7.38;;;2.22;;
39996;SDS011;25688;52.338;21.072;2023-05-29T10:44:02;7.93;;;2.10;;
39996;SDS011;25688;52.338;21.072;2023-05-29T10:49:19;5.93;;;2.40;;
39996;SDS011;25688;52.338;21.072;2023-05-29T10:51:46;7.10;;;2.17;;
39996;SDS011;25688;52.338;21.072;2023-05-29T10:54:14;6.70;;;2.03;;
39996;SDS011;25688;52.338;21.072;2023-05-29T10:56:41;7.07;;;1.95;;
39996;SDS011;25688;52.338;21.072;2023-05-29T10:59:19;6.25;;;2.17;;
39996;SDS011;25688;52.338;21.072;2023-05-29T11:01:45;8.23;;;2.90;;
39996;SDS011;25688;52.338;21.072;2023-05-29T11:06:40;6.72;;;1.80;;
39996;SDS011;25688;52.338;21.072;2023-05-29T11:09:09;5.80;;;1.73;;
39996;SDS011;25688;52.338;21.072;2023-05-29T11:15:02;5.95;;;2.25;;
39996;SDS011;25688;52.338;21.072;2023-05-29T11:17:31;5.03;;;2.08;;
39996;SDS011;25688;52.338;21.072;2023-05-29T11:20:03;8.20;;;2.88;;
39996;SDS011;25688;52.338;21.072;2023-05-29T11:25:14;10.43;;;2.22;;
39996;SDS011;25688;52.338;21.072;2023-05-29T11:27:41;5.47;;;2.00;;
39996;SDS011;25688;52.338;21.072;2023-05-29T11:30:09;5.72;;;2.10;;
39996;SDS011;25688;52.338;21.072;2023-05-29T11:32:36;9.07;;;2.88;;
39996;SDS011;25688;52.338;21.072;2023-05-29T11:35:07;5.63;;;2.20;;
39996;SDS011;25688;52.338;21.072;2023-05-29T11:37:39;10.75;;;2.00;;
39996;SDS011;25688;52.338;21.072;2023-05-29T11:40:08;4.78;;;1.98;;
39996;SDS011;25688;52.338;21.072;2023-05-29T11:42:34;6.82;;;2.50;;
39996;SDS011;25688;52.338;21.072;2023-05-29T11:45:20;5.20;;;1.98;;
39996;SDS011;25688;52.338;21.072;2023-05-29T11:47:56;6.28;;;2.10;;
39996;SDS011;25688;52.338;21.072;2023-05-29T11:50:27;7.82;;;2.50;;
39996;SDS011;25688;52.338;21.072;2023-05-29T11:52:55;8.38;;;2.67;;
39996;SDS011;25688;52.338;21.072;2023-05-29T11:55:22;7.13;;;2.33;;
39996;SDS011;25688;52.338;21.072;2023-05-29T11:57:49;9.60;;;2.35;;
39996;SDS011;25688;52.338;21.072;2023-05-29T12:00:16;7.25;;;2.22;;
39996;SDS011;25688;52.338;21.072;2023-05-29T12:02:44;6.60;;;2.08;;
39996;SDS011;25688;52.338;21.072;2023-05-29T12:05:12;9.50;;;2.85;;
39996;SDS011;25688;52.338;21.072;2023-05-29T12:07:50;5.30;;;2.08;;
39996;SDS011;25688;52.338;21.072;2023-05-29T12:10:17;5.60;;;2.00;;
39996;SDS011;25688;52.338;21.072;2023-05-29T12:12:51;6.63;;;2.17;;
39996;SDS011;25688;52.338;21.072;2023-05-29T12:15:17;6.47;;;2.58;;
39996;SDS011;25688;52.338;21.072;2023-05-29T12:17:44;11.63;;;2.78;;
39996;SDS011;25688;52.338;21.072;2023-05-29T12:20:11;7.82;;;3.13;;
39996;SDS011;25688;52.338;21.072;2023-05-29T12:22:39;6.65;;;2.30;;
39996;SDS011;25688;52.338;21.072;2023-05-29T12:27:33;6.13;;;2.30;;
39996;SDS011;25688;52.338;21.072;2023-05-29T12:30:06;7.65;;;2.10;;
39996;SDS011;25688;52.338;21.072;2023-05-29T12:32:38;5.50;;;2.35;;
39996;SDS011;25688;52.338;21.072;2023-05-29T12:35:21;5.85;;;1.85;;
39996;SDS011;25688;52.338;21.072;2023-05-29T12:37:48;6.07;;;2.08;;
39996;SDS011;25688;52.338;21.072;2023-05-29T12:40:22;4.75;;;1.90;;
39996;SDS011;25688;52.338;21.072;2023-05-29T12:42:55;7.97;;;2.45;;
39996;SDS011;25688;52.338;21.072;2023-05-29T12:45:29;7.97;;;2.70;;
39996;SDS011;25688;52.338;21.072;2023-05-29T12:47:57;7.00;;;2.05;;
39996;SDS011;25688;52.338;21.072;2023-05-29T12:53:15;8.13;;;2.55;;
39996;SDS011;25688;52.338;21.072;2023-05-29T12:55:40;4.85;;;2.58;;
39996;SDS011;25688;52.338;21.072;2023-05-29T12:58:11;5.88;;;2.20;;
39996;SDS011;25688;52.338;21.072;2023-05-29T13:00:38;6.18;;;2.60;;
39996;SDS011;25688;52.338;21.072;2023-05-29T13:03:09;6.72;;;2.33;;
39996;SDS011;25688;52.338;21.072;2023-05-29T13:05:35;9.07;;;2.45;;
39996;SDS011;25688;52.338;21.072;2023-05-29T13:08:01;7.10;;;2.00;;
39996;SDS011;25688;52.338;21.072;2023-05-29T13:10:31;5.65;;;1.80;;
39996;SDS011;25688;52.338;21.072;2023-05-29T13:12:59;6.43;;;2.17;;
39996;SDS011;25688;52.338;21.072;2023-05-29T13:15:25;7.53;;;2.13;;
39996;SDS011;25688;52.338;21.072;2023-05-29T13:17:51;5.60;;;2.00;;
39996;SDS011;25688;52.338;21.072;2023-05-29T13:20:19;5.80;;;2.15;;
39996;SDS011;25688;52.338;21.072;2023-05-29T13:22:46;7.20;;;2.42;;
39996;SDS011;25688;52.338;21.072;2023-05-29T13:25:12;5.00;;;2.08;;
39996;SDS011;25688;52.338;21.072;2023-05-29T13:27:41;9.25;;;2.42;;
39996;SDS011;25688;52.338;21.072;2023-05-29T13:30:09;8.80;;;2.45;;
39996;SDS011;25688;52.338;21.072;2023-05-29T13:32:35;9.80;;;2.33;;
39996;SDS011;25688;52.338;21.072;2023-05-29T13:35:01;5.93;;;2.15;;
39996;SDS011;25688;52.338;21.072;2023-05-29T13:37:28;7.53;;;2.42;;
39996;SDS011;25688;52.338;21.072;2023-05-29T13:39:54;4.18;;;1.90;;
39996;SDS011;25688;52.338;21.072;2023-05-29T13:42:20;4.40;;;1.88;;
39996;SDS011;25688;52.338;21.072;2023-05-29T13:44:47;7.25;;;1.90;;
39996;SDS011;25688;52.338;21.072;2023-05-29T13:47:13;5.45;;;2.28;;
39996;SDS011;25688;52.338;21.072;2023-05-29T13:49:39;5.28;;;1.90;;
39996;SDS011;25688;52.338;21.072;2023-05-29T13:52:05;9.00;;;1.73;;
39996;SDS011;25688;52.338;21.072;2023-05-29T13:54:31;8.63;;;1.98;;
39996;SDS011;25688;52.338;21.072;2023-05-29T13:57:00;8.35;;;2.10;;
39996;SDS011;25688;52.338;21.072;2023-05-29T13:59:28;7.10;;;1.95;;
39996;SDS011;25688;52.338;21.072;2023-05-29T14:01:54;10.52;;;2.40;;
39996;SDS011;25688;52.338;21.072;2023-05-29T14:04:20;6.47;;;2.30;;
39996;SDS011;25688;52.338;21.072;2023-05-29T14:06:46;9.32;;;2.40;;
39996;SDS011;25688;52.338;21.072;2023-05-29T14:09:11;6.45;;;2.30;;
39996;SDS011;25688;52.338;21.072;2023-05-29T14:11:38;10.07;;;2.55;;
39996;SDS011;25688;52.338;21.072;2023-05-29T14:14:04;7.07;;;2.15;;
39996;SDS011;25688;52.338;21.072;2023-05-29T14:16:30;4.65;;;1.83;;
39996;SDS011;25688;52.338;21.072;2023-05-29T14:18:57;4.70;;;1.67;;
39996;SDS011;25688;52.338;21.072;2023-05-29T14:21:29;9.40;;;2.42;;
39996;SDS011;25688;52.338;21.072;2023-05-29T14:23:58;5.22;;;1.90;;
39996;SDS011;25688;52.338;21.072;2023-05-29T14:26:25;6.60;;;2.13;;
39996;SDS011;25688;52.338;21.072;2023-05-29T14:28:51;8.68;;;1.92;;
39996;SDS011;25688;52.338;21.072;2023-05-29T14:31:16;7.07;;;2.00;;
39996;SDS011;25688;52.338;21.072;2023-05-29T14:33:42;11.00;;;2.92;;
39996;SDS011;25688;52.338;21.072;2023-05-29T14:36:08;9.40;;;2.60;;
39996;SDS011;25688;52.338;21.072;2023-05-29T14:38:33;7.35;;;2.45;;
39996;SDS011;25688;52.338;21.072;2023-05-29T14:41:00;5.43;;;2.00;;
39996;SDS011;25688;52.338;21.072;2023-05-29T14:43:26;6.70;;;1.95;;
39996;SDS011;25688;52.338;21.072;2023-05-29T14:45:52;8.82;;;2.80;;
39996;SDS011;25688;52.338;21.072;2023-05-29T14:48:18;11.10;;;2.67;;
39996;SDS011;25688;52.338;21.072;2023-05-29T14:50:43;6.43;;;2.30;;
39996;SDS011;25688;52.338;21.072;2023-05-29T14:53:09;5.82;;;1.88;;
39996;SDS011;25688;52.338;21.072;2023-05-29T14:55:35;7.18;;;2.38;;
39996;SDS011;25688;52.338;21.072;2023-05-29T14:58:04;7.95;;;2.17;;
39996;SDS011;25688;52.338;21.072;2023-05-29T15:00:29;6.38;;;2.00;;
39996;SDS011;25688;52.338;21.072;2023-05-29T15:02:56;5.88;;;2.40;;
39996;SDS011;25688;52.338;21.072;2023-05-29T15:05:24;5.80;;;1.85;;
39996;SDS011;25688;52.338;21.072;2023-05-29T15:07:50;6.38;;;2.20;;
39996;SDS011;25688;52.338;21.072;2023-05-29T15:10:16;6.82;;;2.30;;
39996;SDS011;25688;52.338;21.072;2023-05-29T15:12:45;6.93;;;2.30;;
39996;SDS011;25688;52.338;21.072;2023-05-29T15:15:11;8.23;;;2.42;;
39996;SDS011;25688;52.338;21.072;2023-05-29T15:17:36;4.95;;;2.20;;
39996;SDS011;25688;52.338;21.072;2023-05-29T15:20:04;4.68;;;2.10;;